createdAt,value
2019-03-27T00:01:34.979Z,10.35
2019-03-27T00:04:04.428Z,10.98
2019-03-27T00:06:33.810Z,12.23
2019-03-27T00:09:04.031Z,9.45
2019-03-27T00:11:33.508Z,10.25
2019-03-27T00:14:02.977Z,10.45
2019-03-27T00:16:32.440Z,9.28
2019-03-27T00:19:01.804Z,14.45
2019-03-27T00:21:31.224Z,11.63
2019-03-27T00:24:00.581Z,10.08
2019-03-27T00:26:29.946Z,7.80
2019-03-27T00:28:59.301Z,8.38
2019-03-27T00:31:28.855Z,6.62
2019-03-27T00:33:58.227Z,9.40
2019-03-27T00:36:27.707Z,10.78
2019-03-27T00:38:57.077Z,10.32
2019-03-27T00:41:26.629Z,8.33
2019-03-27T00:43:56.095Z,8.50
2019-03-27T00:46:25.476Z,15.70
2019-03-27T00:48:54.852Z,10.75
2019-03-27T00:51:24.224Z,8.80
2019-03-27T00:53:53.658Z,7.28
2019-03-27T00:56:23.045Z,6.55
2019-03-27T00:58:52.421Z,11.88
2019-03-27T01:01:21.823Z,8.60
2019-03-27T01:03:51.207Z,10.60
2019-03-27T01:06:20.743Z,7.22
2019-03-27T01:08:50.189Z,6.20
2019-03-27T01:11:19.740Z,8.53
2019-03-27T01:13:49.273Z,7.05
2019-03-27T01:16:18.833Z,7.80
2019-03-27T01:18:48.421Z,8.68
2019-03-27T01:21:17.948Z,12.93
2019-03-27T01:23:47.396Z,7.40
2019-03-27T01:26:17.062Z,8.45
2019-03-27T01:28:46.434Z,6.92
2019-03-27T01:31:15.905Z,7.90
2019-03-27T01:33:45.352Z,12.80
2019-03-27T01:36:14.743Z,13.45
2019-03-27T01:38:44.219Z,9.43
2019-03-27T01:41:13.780Z,7.30
2019-03-27T01:43:43.228Z,8.85
2019-03-27T01:46:12.727Z,7.28
2019-03-27T01:48:42.959Z,10.80
2019-03-27T01:51:12.387Z,12.20
2019-03-27T01:53:41.832Z,8.40
2019-03-27T01:56:11.227Z,14.58
2019-03-27T01:58:40.723Z,11.12
2019-03-27T02:01:10.212Z,7.90
2019-03-27T02:03:39.685Z,7.22
2019-03-27T02:06:09.053Z,8.35
2019-03-27T02:08:38.418Z,5.67
2019-03-27T02:11:07.936Z,4.05
2019-03-27T02:13:37.419Z,5.60
2019-03-27T02:16:07.562Z,8.40
2019-03-27T02:18:37.068Z,6.53
2019-03-27T02:21:06.583Z,6.35
2019-03-27T02:23:35.970Z,7.90
2019-03-27T02:26:04.678Z,5.45
2019-03-27T02:28:34.123Z,9.93
2019-03-27T02:31:03.677Z,5.55
2019-03-27T02:33:33.132Z,6.53
2019-03-27T02:36:02.492Z,4.85
2019-03-27T02:38:31.884Z,10.55
2019-03-27T02:41:01.318Z,10.05
2019-03-27T02:43:30.766Z,11.35
2019-03-27T02:46:00.157Z,7.83
2019-03-27T02:48:29.556Z,7.50
2019-03-27T02:50:58.913Z,8.33
2019-03-27T02:53:28.369Z,8.90
2019-03-27T02:55:57.828Z,6.78
2019-03-27T02:58:27.276Z,9.00
2019-03-27T03:00:56.717Z,6.78
2019-03-27T03:03:26.164Z,8.23
2019-03-27T03:05:55.541Z,8.78
2019-03-27T03:08:25.001Z,8.98
2019-03-27T03:10:54.604Z,8.95
2019-03-27T03:13:24.142Z,7.85
2019-03-27T03:15:53.588Z,9.40
2019-03-27T03:18:23.116Z,8.98
2019-03-27T03:20:52.559Z,10.28
2019-03-27T03:23:21.975Z,6.67
2019-03-27T03:25:51.336Z,7.87
2019-03-27T03:28:20.802Z,6.55
2019-03-27T03:30:50.154Z,6.90
2019-03-27T03:33:19.551Z,8.38
2019-03-27T03:35:48.987Z,11.38
2019-03-27T03:38:18.576Z,9.58
2019-03-27T03:40:47.942Z,9.43
2019-03-27T03:43:17.317Z,7.92
2019-03-27T03:45:46.846Z,6.42
2019-03-27T03:48:16.388Z,8.63
2019-03-27T03:50:45.902Z,7.45
2019-03-27T03:53:15.890Z,8.50
2019-03-27T03:55:45.593Z,7.05
2019-03-27T03:58:16.953Z,8.80
2019-03-27T04:00:46.804Z,9.68
2019-03-27T04:03:16.343Z,9.23
2019-03-27T04:05:45.824Z,8.53
2019-03-27T04:08:15.424Z,6.20
2019-03-27T04:10:44.956Z,11.48
2019-03-27T04:13:14.536Z,7.15
2019-03-27T04:15:44.232Z,7.15
2019-03-27T04:18:13.676Z,6.80
2019-03-27T04:20:43.099Z,7.83
2019-03-27T04:23:12.568Z,8.68
2019-03-27T04:26:06.942Z,8.33
2019-03-27T04:28:13.180Z,8.35
2019-03-27T04:30:42.642Z,7.70
2019-03-27T04:33:12.200Z,8.75
2019-03-27T04:35:41.851Z,6.53
2019-03-27T04:38:11.292Z,7.17
2019-03-27T04:40:40.896Z,8.65
2019-03-27T04:43:10.360Z,6.37
2019-03-27T04:45:39.818Z,7.58
2019-03-27T04:48:09.293Z,9.38
2019-03-27T04:50:38.660Z,8.73
2019-03-27T04:53:08.040Z,10.35
2019-03-27T04:55:37.493Z,13.93
2019-03-27T04:58:07.028Z,12.37
2019-03-27T05:00:36.570Z,11.38
2019-03-27T05:03:06.480Z,8.83
2019-03-27T05:05:36.099Z,10.63
2019-03-27T05:08:05.543Z,8.40
2019-03-27T05:10:34.913Z,7.83
2019-03-27T05:13:04.393Z,10.05
2019-03-27T05:15:34.007Z,11.95
2019-03-27T05:18:03.483Z,9.50
2019-03-27T05:20:32.848Z,9.23
2019-03-27T05:23:02.308Z,10.68
2019-03-27T05:25:31.694Z,7.22
2019-03-27T05:28:01.163Z,12.60
2019-03-27T05:30:30.959Z,13.95
2019-03-27T05:33:00.485Z,8.40
2019-03-27T05:35:29.995Z,11.85
2019-03-27T05:37:59.397Z,9.68
2019-03-27T05:40:28.883Z,10.50
2019-03-27T05:43:00.933Z,11.00
2019-03-27T05:45:29.795Z,9.55
2019-03-27T05:48:00.175Z,10.88
2019-03-27T05:50:29.839Z,12.05
2019-03-27T05:52:59.407Z,11.95
2019-03-27T05:55:28.967Z,11.60
2019-03-27T05:57:58.345Z,12.98
2019-03-27T06:00:27.801Z,15.35
2019-03-27T06:02:57.230Z,14.13
2019-03-27T06:05:26.601Z,12.07
2019-03-27T06:07:55.986Z,12.30
2019-03-27T06:10:25.454Z,16.73
2019-03-27T06:12:54.992Z,12.93
2019-03-27T06:15:24.454Z,13.80
2019-03-27T06:17:54.744Z,13.90
2019-03-27T06:20:24.138Z,16.45
2019-03-27T06:22:53.654Z,17.20
2019-03-27T06:25:23.037Z,16.17
2019-03-27T06:27:52.428Z,16.32
2019-03-27T06:30:22.414Z,17.15
2019-03-27T06:32:51.781Z,18.48
2019-03-27T06:35:21.232Z,18.87
2019-03-27T06:37:50.695Z,17.92
2019-03-27T06:40:21.451Z,19.87
2019-03-27T06:42:50.991Z,18.62
2019-03-27T06:45:20.449Z,14.65
2019-03-27T06:47:49.967Z,19.52
2019-03-27T06:50:19.431Z,14.43
2019-03-27T06:52:51.946Z,17.42
2019-03-27T06:55:21.437Z,14.55
2019-03-27T06:57:50.868Z,16.30
2019-03-27T07:00:24.215Z,15.08
2019-03-27T07:02:53.607Z,15.55
2019-03-27T07:05:22.997Z,16.25
2019-03-27T07:07:52.395Z,13.75
2019-03-27T07:10:21.761Z,12.15
2019-03-27T07:12:51.150Z,12.82
2019-03-27T07:15:20.649Z,12.40
2019-03-27T07:17:50.081Z,11.53
2019-03-27T07:20:19.617Z,13.30
2019-03-27T07:22:49.155Z,12.18
2019-03-27T07:25:18.766Z,12.40
2019-03-27T07:27:48.228Z,9.45
2019-03-27T07:30:17.785Z,11.80
2019-03-27T07:32:47.194Z,12.33
2019-03-27T07:35:16.568Z,14.00
2019-03-27T07:37:46.040Z,17.90
2019-03-27T07:40:15.652Z,13.05
2019-03-27T07:42:45.200Z,15.85
2019-03-27T07:45:15.005Z,12.47
2019-03-27T07:47:44.378Z,13.20
2019-03-27T07:50:14.017Z,11.48
2019-03-27T07:52:43.477Z,14.23
2019-03-27T07:55:19.348Z,11.43
2019-03-27T07:57:44.253Z,19.57
2019-03-27T08:00:15.545Z,13.95
2019-03-27T08:02:45.101Z,12.23
2019-03-27T08:05:14.589Z,10.53
2019-03-27T08:07:43.996Z,12.85
2019-03-27T08:10:13.597Z,15.18
2019-03-27T08:12:43.129Z,11.68
2019-03-27T08:15:12.867Z,9.95
2019-03-27T08:17:42.337Z,10.00
2019-03-27T08:20:12.297Z,10.58
2019-03-27T08:22:41.688Z,11.53
2019-03-27T08:25:11.609Z,15.60
2019-03-27T08:27:41.083Z,11.33
2019-03-27T08:30:13.301Z,12.93
2019-03-27T08:32:42.852Z,13.62
2019-03-27T08:35:12.712Z,11.43
2019-03-27T08:37:42.271Z,13.62
2019-03-27T08:40:12.270Z,10.35
2019-03-27T08:42:41.729Z,8.15
2019-03-27T08:45:11.478Z,9.35
2019-03-27T08:47:40.993Z,7.15
2019-03-27T08:50:11.587Z,7.97
2019-03-27T08:52:41.008Z,10.63
2019-03-27T08:55:13.652Z,6.90
2019-03-27T08:57:42.264Z,13.30
2019-03-27T09:00:12.843Z,19.05
2019-03-27T09:02:42.368Z,9.48
2019-03-27T09:05:11.912Z,9.28
2019-03-27T09:07:41.559Z,7.00
2019-03-27T09:10:11.532Z,6.92
2019-03-27T09:12:41.004Z,8.98
2019-03-27T09:15:11.006Z,5.33
2019-03-27T09:17:40.409Z,6.35
2019-03-27T09:20:10.985Z,9.78
2019-03-27T09:22:40.391Z,5.75
2019-03-27T09:25:10.111Z,6.80
2019-03-27T09:27:39.595Z,7.25
2019-03-27T09:30:11.480Z,4.95
2019-03-27T09:32:40.982Z,5.35
2019-03-27T09:35:10.600Z,6.10
2019-03-27T09:37:40.061Z,5.95
2019-03-27T09:40:09.918Z,5.50
2019-03-27T09:42:39.443Z,4.50
2019-03-27T09:45:09.521Z,4.62
2019-03-27T09:47:38.909Z,3.27
2019-03-27T09:50:08.653Z,6.25
2019-03-27T09:52:38.132Z,11.18
2019-03-27T09:55:07.856Z,6.30
2019-03-27T09:57:37.323Z,7.12
2019-03-27T10:00:07.970Z,5.28
2019-03-27T10:02:37.436Z,6.45
2019-03-27T10:05:07.273Z,5.17
2019-03-27T10:07:36.720Z,7.10
2019-03-27T10:10:07.053Z,8.80
2019-03-27T10:12:36.514Z,4.25
2019-03-27T10:15:06.504Z,8.90
2019-03-27T10:17:36.008Z,6.85
2019-03-27T10:20:06.415Z,4.10
2019-03-27T10:22:35.884Z,6.50
2019-03-27T10:25:06.252Z,9.10
2019-03-27T10:27:35.896Z,10.50
2019-03-27T10:30:06.236Z,7.30
2019-03-27T10:32:35.636Z,8.35
2019-03-27T10:35:05.589Z,9.53
2019-03-27T10:37:35.085Z,13.35
2019-03-27T10:40:05.101Z,7.28
2019-03-27T10:42:34.646Z,9.80
2019-03-27T10:45:04.325Z,6.95
2019-03-27T10:47:33.884Z,6.35
2019-03-27T10:52:31.469Z,7.25
2019-03-27T10:55:00.940Z,6.15
2019-03-27T10:57:30.316Z,7.45
2019-03-27T10:59:59.700Z,7.10
2019-03-27T11:02:29.072Z,7.45
2019-03-27T11:04:58.458Z,7.70
2019-03-27T11:07:27.828Z,8.18
2019-03-27T11:09:57.285Z,10.90
2019-03-27T11:12:26.741Z,8.58
2019-03-27T11:14:56.121Z,11.97
2019-03-27T11:17:25.581Z,10.40
2019-03-27T11:19:54.979Z,10.03
2019-03-27T11:22:24.471Z,7.25
2019-03-27T11:24:54.037Z,8.38
2019-03-27T11:27:23.587Z,9.55
2019-03-27T11:29:53.091Z,14.78
2019-03-27T11:32:22.730Z,8.95
2019-03-27T11:34:52.188Z,8.83
2019-03-27T11:37:21.588Z,9.33
2019-03-27T11:39:50.977Z,8.78
2019-03-27T11:42:20.337Z,12.25
2019-03-27T11:44:49.820Z,12.75
2019-03-27T11:47:19.275Z,5.53
2019-03-27T11:49:48.838Z,8.25
2019-03-27T11:52:18.241Z,7.87
2019-03-27T11:54:47.819Z,5.47
2019-03-27T11:57:17.345Z,7.08
2019-03-27T11:59:53.937Z,8.23
2019-03-27T12:02:17.896Z,6.67
2019-03-27T12:04:47.302Z,7.65
2019-03-27T12:07:16.662Z,8.40
2019-03-27T12:09:46.027Z,11.60
2019-03-27T12:12:15.499Z,13.40
2019-03-27T12:14:44.890Z,10.53
2019-03-27T12:17:14.371Z,7.20
2019-03-27T12:19:43.829Z,8.28
2019-03-27T12:22:13.287Z,8.35
2019-03-27T12:24:42.824Z,11.30
2019-03-27T12:27:12.212Z,7.08
2019-03-27T12:29:41.678Z,8.65
2019-03-27T12:32:11.158Z,7.25
2019-03-27T12:34:40.552Z,6.78
2019-03-27T12:37:10.004Z,6.92
2019-03-27T12:39:40.985Z,11.78
2019-03-27T12:42:10.718Z,5.95
2019-03-27T12:44:40.098Z,4.85
2019-03-27T12:47:09.632Z,10.10
2019-03-27T12:49:39.102Z,6.75
2019-03-27T12:52:08.613Z,8.15
2019-03-27T12:54:38.080Z,5.95
2019-03-27T12:57:07.615Z,8.03
2019-03-27T12:59:37.227Z,6.62
2019-03-27T13:02:07.507Z,8.43
2019-03-27T13:04:37.023Z,7.28
2019-03-27T13:07:06.508Z,9.93
2019-03-27T13:09:35.898Z,9.30
2019-03-27T13:12:05.423Z,7.37
2019-03-27T13:14:34.909Z,4.55
2019-03-27T13:17:04.333Z,5.83
2019-03-27T13:19:33.818Z,5.00
2019-03-27T13:22:03.194Z,5.92
2019-03-27T13:24:33.592Z,6.25
2019-03-27T13:27:03.087Z,7.12
2019-03-27T13:29:32.571Z,7.58
2019-03-27T13:32:02.056Z,5.60
2019-03-27T13:34:31.622Z,5.53
2019-03-27T13:37:01.094Z,9.43
2019-03-27T13:39:30.563Z,7.62
2019-03-27T13:42:00.388Z,9.73
2019-03-27T13:44:36.792Z,8.63
2019-03-27T13:47:01.303Z,6.12
2019-03-27T13:49:30.927Z,6.62
2019-03-27T13:52:00.441Z,4.37
2019-03-27T13:54:29.924Z,7.17
2019-03-27T13:57:01.492Z,6.90
2019-03-27T13:59:30.959Z,5.47
2019-03-27T14:02:00.506Z,6.03
2019-03-27T14:04:30.063Z,5.12
2019-03-27T14:06:59.525Z,6.60
2019-03-27T14:09:28.997Z,4.60
2019-03-27T14:11:58.459Z,6.25
2019-03-27T14:14:28.274Z,9.13
2019-03-27T14:16:59.965Z,5.75
2019-03-27T14:19:29.356Z,7.47
2019-03-27T14:21:58.802Z,5.15
2019-03-27T14:24:28.380Z,6.95
2019-03-27T14:26:57.780Z,4.92
2019-03-27T14:29:27.248Z,6.62
2019-03-27T14:31:56.772Z,8.08
2019-03-27T14:34:27.841Z,10.18
2019-03-27T14:37:00.362Z,4.47
2019-03-27T14:39:30.901Z,5.62
2019-03-27T14:42:01.540Z,8.18
2019-03-27T14:44:31.029Z,7.55
2019-03-27T14:47:00.548Z,6.05
2019-03-27T14:49:30.236Z,8.23
2019-03-27T14:52:08.253Z,6.17
2019-03-27T14:54:49.812Z,8.78
2019-03-27T14:57:19.275Z,6.95
2019-03-27T14:59:48.668Z,4.67
2019-03-27T15:02:18.601Z,6.20
2019-03-27T15:04:48.094Z,6.47
2019-03-27T15:07:18.373Z,6.05
2019-03-27T15:09:49.578Z,5.80
2019-03-27T15:12:20.839Z,6.25
2019-03-27T15:14:50.383Z,3.37
2019-03-27T15:17:20.228Z,5.15
2019-03-27T15:19:49.641Z,5.92
2019-03-27T15:22:22.685Z,6.08
2019-03-27T15:24:50.221Z,6.85
2019-03-27T15:27:19.590Z,5.20
2019-03-27T15:29:49.288Z,6.33
2019-03-27T15:32:18.792Z,4.45
2019-03-27T15:34:48.268Z,9.45
2019-03-27T15:37:17.709Z,6.75
2019-03-27T15:39:47.196Z,5.60
2019-03-27T15:42:16.684Z,10.58
2019-03-27T15:44:49.458Z,10.60
2019-03-27T15:47:17.980Z,6.35
2019-03-27T15:49:47.539Z,9.65
2019-03-27T15:52:16.973Z,6.60
2019-03-27T15:54:46.449Z,6.95
2019-03-27T15:57:15.902Z,8.33
2019-03-27T15:59:45.387Z,11.43
2019-03-27T16:02:14.938Z,7.10
2019-03-27T16:04:44.340Z,7.03
2019-03-27T16:07:13.848Z,9.38
2019-03-27T16:09:43.263Z,8.83
2019-03-27T16:12:12.839Z,8.65
2019-03-27T16:14:45.842Z,5.12
2019-03-27T16:17:15.406Z,4.53
2019-03-27T16:19:44.833Z,4.10
2019-03-27T16:22:14.381Z,4.97
2019-03-27T16:24:43.811Z,9.90
2019-03-27T16:27:13.268Z,6.33
2019-03-27T16:29:42.824Z,7.37
2019-03-27T16:32:12.364Z,6.72
2019-03-27T16:34:41.833Z,10.38
2019-03-27T16:37:11.358Z,8.73
2019-03-27T16:39:41.889Z,10.38
2019-03-27T16:42:11.274Z,6.97
2019-03-27T16:44:40.811Z,7.03
2019-03-27T16:47:10.334Z,11.00
2019-03-27T16:49:39.835Z,8.93
2019-03-27T16:52:09.477Z,9.05
2019-03-27T16:54:39.008Z,14.28
2019-03-27T16:57:10.177Z,9.28
2019-03-27T16:59:39.764Z,11.95
2019-03-27T17:02:10.805Z,11.08
2019-03-27T17:04:40.211Z,10.40
2019-03-27T17:07:09.758Z,13.22
2019-03-27T17:09:39.158Z,15.60
2019-03-27T17:12:10.819Z,8.78
2019-03-27T17:14:40.287Z,10.70
2019-03-27T17:17:09.823Z,21.65
2019-03-27T17:19:39.224Z,12.33
2019-03-27T17:22:18.847Z,16.95
2019-03-27T17:24:39.789Z,19.87
2019-03-27T17:27:09.220Z,15.90
2019-03-27T17:29:38.635Z,16.80
2019-03-27T17:32:08.168Z,16.10
2019-03-27T17:34:37.638Z,15.68
2019-03-27T17:37:07.171Z,13.35
2019-03-27T17:39:36.625Z,16.50
2019-03-27T17:42:06.145Z,16.25
2019-03-27T17:44:35.596Z,16.57
2019-03-27T17:47:06.665Z,16.05
2019-03-27T17:49:36.165Z,17.85
2019-03-27T17:52:05.722Z,15.68
2019-03-27T17:54:35.257Z,15.90
2019-03-27T17:57:04.836Z,17.15
2019-03-27T17:59:34.308Z,19.98
2019-03-27T18:02:03.795Z,12.95
2019-03-27T18:04:33.199Z,13.65
2019-03-27T18:07:04.659Z,16.55
2019-03-27T18:09:34.222Z,16.12
2019-03-27T18:12:03.807Z,17.50
2019-03-27T18:14:33.368Z,17.35
2019-03-27T18:17:03.093Z,16.12
2019-03-27T18:19:32.481Z,16.50
2019-03-27T18:22:07.641Z,15.95
2019-03-27T18:24:33.005Z,15.00
2019-03-27T18:27:02.477Z,14.63
2019-03-27T18:29:31.957Z,13.32
2019-03-27T18:32:01.436Z,15.18
2019-03-27T18:34:30.923Z,12.53
2019-03-27T18:37:00.411Z,13.05
2019-03-27T18:39:32.031Z,13.85
2019-03-27T18:42:07.243Z,14.83
2019-03-27T18:44:36.780Z,16.20
2019-03-27T18:47:08.843Z,13.62
2019-03-27T18:49:38.311Z,16.12
2019-03-27T18:52:07.869Z,12.58
2019-03-27T18:54:37.332Z,13.35
2019-03-27T18:57:08.156Z,12.20
2019-03-27T18:59:42.172Z,15.20
2019-03-27T19:02:11.647Z,17.98
2019-03-27T19:04:41.167Z,16.60
2019-03-27T19:07:10.681Z,14.35
2019-03-27T19:09:42.280Z,14.13
2019-03-27T19:12:11.760Z,11.63
2019-03-27T19:14:46.295Z,13.13
2019-03-27T19:17:15.821Z,10.98
2019-03-27T19:19:49.430Z,15.80
2019-03-27T19:22:18.934Z,13.28
2019-03-27T19:24:48.458Z,19.65
2019-03-27T19:27:18.067Z,14.75
2019-03-27T19:29:47.558Z,16.07
2019-03-27T19:32:17.000Z,14.20
2019-03-27T19:34:46.578Z,14.47
2019-03-27T19:37:16.038Z,12.43
2019-03-27T19:39:45.540Z,16.80
2019-03-27T19:42:15.028Z,13.22
2019-03-27T19:44:44.523Z,12.98
2019-03-27T19:47:14.180Z,13.38
2019-03-27T19:49:45.411Z,12.40
2019-03-27T19:52:14.887Z,16.50
2019-03-27T19:54:48.442Z,11.95
2019-03-27T19:57:17.805Z,15.18
2019-03-27T19:59:52.964Z,11.65
2019-03-27T20:02:22.488Z,14.90
2019-03-27T20:04:52.052Z,13.03
2019-03-27T20:07:21.573Z,13.32
2019-03-27T20:09:55.031Z,19.42
2019-03-27T20:12:24.486Z,13.90
2019-03-27T20:14:53.927Z,13.75
2019-03-27T20:17:24.747Z,16.70
2019-03-27T20:19:57.312Z,14.28
2019-03-27T20:22:30.093Z,14.03
2019-03-27T20:25:05.238Z,18.25
2019-03-27T20:27:38.960Z,14.03
2019-03-27T20:30:10.745Z,16.95
2019-03-27T20:32:42.013Z,13.45
2019-03-27T20:35:14.327Z,16.35
2019-03-27T20:37:45.423Z,15.85
2019-03-27T20:40:19.152Z,19.15
2019-03-27T20:42:52.123Z,16.07
2019-03-27T20:45:24.152Z,15.70
2019-03-27T20:47:55.356Z,16.00
2019-03-27T20:50:26.936Z,18.45
2019-03-27T20:52:55.984Z,18.92
2019-03-27T20:55:30.435Z,15.93
2019-03-27T20:57:56.716Z,21.30
2019-03-27T21:00:30.281Z,18.65
2019-03-27T21:03:01.118Z,16.52
2019-03-27T21:05:34.922Z,17.37
2019-03-27T21:08:01.770Z,18.48
2019-03-27T21:10:31.535Z,19.48
2019-03-27T21:13:02.458Z,21.25
2019-03-27T21:15:32.087Z,23.47
2019-03-27T21:18:01.676Z,20.90
2019-03-27T21:20:32.345Z,19.82
2019-03-27T21:23:01.804Z,21.40
2019-03-27T21:25:31.514Z,23.65
2019-03-27T21:28:01.310Z,21.82
2019-03-27T21:30:30.742Z,23.22
2019-03-27T21:33:03.849Z,20.92
2019-03-27T21:35:33.682Z,19.75
2019-03-27T21:38:03.343Z,20.60
2019-03-27T21:40:32.942Z,15.90
2019-03-27T21:43:02.729Z,19.98
2019-03-27T21:45:32.541Z,16.10
2019-03-27T21:48:02.243Z,18.82
2019-03-27T21:50:31.769Z,22.40
2019-03-27T21:53:01.441Z,21.20
2019-03-27T21:55:42.108Z,16.65
2019-03-27T21:58:02.202Z,18.73
2019-03-27T22:00:39.238Z,19.77
2019-03-27T22:03:09.277Z,15.38
2019-03-27T22:05:39.022Z,16.82
2019-03-27T22:08:08.638Z,16.45
2019-03-27T22:10:38.250Z,20.20
2019-03-27T22:13:07.870Z,22.80
2019-03-27T22:15:37.510Z,17.00
2019-03-27T22:18:07.148Z,22.02
2019-03-27T22:20:39.519Z,20.43
2019-03-27T22:23:08.087Z,19.50
2019-03-27T22:25:37.849Z,23.65
2019-03-27T22:28:07.378Z,24.43
2019-03-27T22:30:37.104Z,25.10
2019-03-27T22:33:06.747Z,23.77
2019-03-27T22:35:36.455Z,24.10
2019-03-27T22:38:06.087Z,21.37
2019-03-27T22:40:35.701Z,20.82
2019-03-27T22:43:05.373Z,21.20
2019-03-27T22:45:35.099Z,21.52
2019-03-27T22:48:04.775Z,24.35
2019-03-27T22:50:34.432Z,24.55
2019-03-27T22:53:04.039Z,22.70
2019-03-27T22:55:33.623Z,19.92
2019-03-27T22:58:03.107Z,19.50
2019-03-27T23:00:49.512Z,23.73
2019-03-27T23:03:19.263Z,22.17
2019-03-27T23:05:48.863Z,25.68
2019-03-27T23:08:18.512Z,23.18
2019-03-27T23:10:48.220Z,28.98
2019-03-27T23:13:17.856Z,22.15
2019-03-27T23:15:47.528Z,27.73
2019-03-27T23:18:17.832Z,26.00
2019-03-27T23:20:55.611Z,24.02
2019-03-27T23:23:18.611Z,26.05
2019-03-27T23:25:48.244Z,26.57
2019-03-27T23:28:19.142Z,28.73
2019-03-27T23:30:48.671Z,33.25
2019-03-27T23:33:20.257Z,27.80
2019-03-27T23:35:49.626Z,29.55
2019-03-27T23:38:19.126Z,26.15
2019-03-27T23:40:48.636Z,23.10
2019-03-27T23:43:18.215Z,27.45
2019-03-27T23:45:47.815Z,25.75
2019-03-27T23:48:17.363Z,24.35
2019-03-27T23:50:46.957Z,29.35
2019-03-27T23:53:16.510Z,32.88
2019-03-27T23:55:46.089Z,29.85
2019-03-27T23:58:15.674Z,26.48
